Time;durP1;ratioP1;P1;durP2;ratioP2;P2;SDS_P1;SDS_P2;PMS_P1;PMS_P2;Temp;Humidity;BMP_temperature;BMP_pressure;BME280_temperature;BME280_humidity;BME280_pressure;Samples;Min_cycle;Max_cycle;Signal;HPM_P1;HPM_P2
2021/01/03 00:01:12;;;;;;;73.00;38.83;;;;;;;2.13;69.29;99715.09;10466808;28;20123;-65
2021/01/03 00:06:14;;;;;;;76.13;38.95;;;;;;;1.98;69.88;99721.16;10466426;28;20056;-64
2021/01/03 00:11:15;;;;;;;78.72;38.78;;;;;;;2.13;69.37;99708.16;10466288;28;20033;-64
2021/01/03 00:16:17;;;;;;;71.63;38.13;;;;;;;2.00;69.78;99699.56;10466745;28;20053;-65
2021/01/03 00:21:18;;;;;;;71.30;38.28;;;;;;;1.98;69.58;99698.69;10466067;28;20044;-65
2021/01/03 00:26:19;;;;;;;74.28;39.97;;;;;;;2.04;69.50;99687.47;10465583;28;20453;-65
2021/01/03 00:31:23;;;;;;;70.20;39.28;;;;;;;1.91;69.67;99689.22;10466264;28;20120;-65
2021/01/03 00:36:24;;;;;;;77.75;40.70;;;;;;;1.91;69.79;99683.16;10448607;28;20053;-65
2021/01/03 00:41:26;;;;;;;75.15;39.67;;;;;;;2.23;68.89;99690.84;10465598;28;20045;-64
2021/01/03 00:46:27;;;;;;;70.40;38.38;;;;;;;2.07;69.24;99691.75;10464464;28;20079;-64
2021/01/03 00:51:28;;;;;;;77.65;39.97;;;;;;;2.16;69.22;99686.53;10446163;28;20072;-64
2021/01/03 00:56:29;;;;;;;78.57;39.40;;;;;;;2.30;68.93;99686.47;10446250;28;20068;-65
2021/01/03 01:01:30;;;;;;;79.45;39.70;;;;;;;2.16;69.21;99689.97;10446106;28;20068;-64
2021/01/03 01:06:32;;;;;;;77.40;40.33;;;;;;;2.15;68.91;99680.50;10462364;28;20052;-65
2021/01/03 01:11:38;;;;;;;68.70;38.25;;;;;;;2.15;69.09;99683.09;10442857;28;20414;-63
2021/01/03 01:16:39;;;;;;;79.20;38.80;;;;;;;2.05;69.98;99677.94;10444073;28;20422;-64
2021/01/03 01:21:41;;;;;;;77.78;40.08;;;;;;;1.76;70.82;99676.28;10443924;28;20048;-63
2021/01/03 01:26:42;;;;;;;82.47;40.95;;;;;;;1.48;71.69;99684.09;10460954;28;20053;-66
2021/01/03 01:31:44;;;;;;;84.63;42.38;;;;;;;1.50;72.37;99671.97;10461170;28;20120;-64
2021/01/03 01:36:45;;;;;;;86.78;42.38;;;;;;;1.24;72.92;99673.75;10462430;28;20048;-64
2021/01/03 01:41:46;;;;;;;83.13;44.10;;;;;;;1.34;73.00;99657.34;10462482;28;20037;-64
2021/01/03 01:47:11;;;;;;;85.80;42.95;;;;;;;1.17;73.49;99653.88;10461224;28;20095;-64
2021/01/03 01:52:16;;;;;;;85.38;43.58;;;;;;;1.22;73.48;99637.47;10460308;28;20095;-64
2021/01/03 01:57:28;;;;;;;94.53;47.22;;;;;;;1.00;73.89;99641.78;10462419;28;20071;-64
2021/01/03 02:02:38;;;;;;;95.60;45.38;;;;;;;1.08;73.87;99640.94;10460559;28;20045;-65
2021/01/03 02:07:51;;;;;;;90.40;44.78;;;;;;;0.82;74.26;99641.78;10459130;28;20053;-64
2021/01/03 02:13:07;;;;;;;95.50;45.63;;;;;;;1.06;73.78;99635.75;10458653;28;20072;-64
2021/01/03 02:18:11;;;;;;;92.70;43.67;;;;;;;0.90;73.91;99634.91;10459147;28;20064;-64
2021/01/03 02:23:19;;;;;;;84.30;44.42;;;;;;;0.77;74.29;99630.56;10460844;28;20045;-64
2021/01/03 02:28:22;;;;;;;89.63;44.30;;;;;;;0.75;73.82;99633.16;10459046;28;20068;-64
2021/01/03 02:33:38;;;;;;;84.70;43.92;;;;;;;0.94;73.56;99631.44;10458800;28;20091;-63
2021/01/03 02:38:55;;;;;;;89.70;44.47;;;;;;;0.72;74.05;99637.47;10457982;28;20117;-64
2021/01/03 02:43:56;;;;;;;91.82;45.78;;;;;;;0.68;74.71;99634.00;10459156;28;20048;-64
2021/01/03 02:48:57;;;;;;;89.95;44.55;;;;;;;0.68;74.49;99622.78;10457328;28;20065;-64
2021/01/03 02:53:58;;;;;;;90.68;44.92;;;;;;;0.73;74.42;99623.66;10439166;28;20065;-64
2021/01/03 02:59:00;;;;;;;92.80;46.03;;;;;;;0.70;74.55;99618.47;10458060;28;20121;-64
2021/01/03 03:04:04;;;;;;;86.65;44.00;;;;;;;0.67;74.59;99610.72;10458622;28;20077;-64
2021/01/03 03:09:06;;;;;;;80.55;42.20;;;;;;;0.67;74.40;99603.84;10456301;28;20037;-64
2021/01/03 03:14:07;;;;;;;84.18;44.50;;;;;;;0.62;74.41;99602.06;10457076;28;20128;-64
2021/01/03 03:19:09;;;;;;;85.53;44.03;;;;;;;0.56;74.86;99597.75;10437953;28;20479;-62
2021/01/03 03:24:10;;;;;;;85.10;44.40;;;;;;;0.68;74.52;99582.28;10455979;28;20044;-64
2021/01/03 03:29:11;;;;;;;82.22;42.85;;;;;;;0.55;75.11;99577.94;10455480;28;20040;-64
2021/01/03 03:34:13;;;;;;;99.07;47.50;;;;;;;0.35;75.13;99574.44;10456089;28;20223;-64
2021/01/03 03:39:14;;;;;;;90.55;44.80;;;;;;;0.39;75.39;99566.69;10455945;28;20071;-64
2021/01/03 03:44:15;;;;;;;92.20;46.13;;;;;;;0.37;75.33;99567.56;10460192;28;20128;-64
2021/01/03 03:49:17;;;;;;;82.22;43.63;;;;;;;0.53;75.31;99566.72;10463014;28;20045;-64
2021/01/03 03:54:18;;;;;;;89.30;45.85;;;;;;;0.47;75.24;99559.81;10462537;28;20431;-64
2021/01/03 03:59:20;;;;;;;89.07;46.67;;;;;;;0.39;75.56;99565.84;10463391;28;20052;-64
2021/01/03 04:04:23;;;;;;;88.63;44.90;;;;;;;0.53;75.20;99558.09;10462601;28;20048;-64
2021/01/03 04:09:24;;;;;;;89.32;44.05;;;;;;;0.47;75.38;99559.81;10444644;28;20480;-64
2021/01/03 04:14:26;;;;;;;91.65;44.28;;;;;;;0.49;75.37;99549.50;10463103;28;20076;-64
2021/01/03 04:19:28;;;;;;;95.22;48.60;;;;;;;0.21;76.00;99552.00;10461728;28;20041;-67
2021/01/03 04:24:31;;;;;;;98.15;48.63;;;;;;;0.28;75.82;99534.81;10461590;28;20466;-67
2021/01/03 04:29:33;;;;;;;91.22;46.92;;;;;;;0.39;75.50;99538.25;10461092;28;20069;-67
2021/01/03 04:34:40;;;;;;;89.95;46.38;;;;;;;0.47;75.53;99530.53;10461573;28;20084;-67
2021/01/03 04:39:41;;;;;;;94.35;47.38;;;;;;;0.42;75.51;99535.69;10461462;28;20039;-67
2021/01/03 04:44:44;;;;;;;89.47;43.85;;;;;;;0.48;75.46;99540.84;10460945;28;20057;-67
2021/01/03 04:49:55;;;;;;;80.65;41.60;;;;;;;0.58;75.40;99538.31;10460690;28;20041;-67
2021/01/03 04:55:16;;;;;;;87.35;45.17;;;;;;;0.46;75.49;99539.16;10459900;28;20104;-67
2021/01/03 05:00:27;;;;;;;83.20;42.95;;;;;;;0.54;75.31;99537.44;10442018;28;20076;-67
2021/01/03 05:05:46;;;;;;;84.38;42.85;;;;;;;0.53;75.30;99530.50;10442244;28;20045;-68
2021/01/03 05:10:47;;;;;;;89.88;43.20;;;;;;;0.54;75.50;99534.00;10442177;28;20039;-68
2021/01/03 05:15:48;;;;;;;84.18;43.00;;;;;;;0.63;75.25;99534.00;10460148;28;20053;-69
2021/01/03 05:20:58;;;;;;;87.70;45.00;;;;;;;0.57;75.22;99524.47;10459438;28;20513;-68
2021/01/03 05:26:02;;;;;;;86.57;44.85;;;;;;;0.59;75.17;99530.53;10459814;28;20463;-68
2021/01/03 05:31:15;;;;;;;80.03;43.40;;;;;;;0.68;74.88;99525.34;10459730;28;20043;-68
2021/01/03 05:36:27;;;;;;;84.43;42.83;;;;;;;0.59;74.74;99517.59;10459626;28;20053;-68
2021/01/03 05:41:49;;;;;;;85.65;44.65;;;;;;;0.61;75.09;99518.44;10458976;28;20065;-68
2021/01/03 05:47:12;;;;;;;85.28;43.15;;;;;;;0.44;75.37;99523.63;10459103;28;20087;-68
2021/01/03 05:52:30;;;;;;;82.82;41.72;;;;;;;0.60;75.40;99515.88;10457871;28;20108;-67
2021/01/03 05:57:35;;;;;;;88.03;42.35;;;;;;;0.60;75.42;99518.47;10458296;28;20053;-67
2021/01/03 06:02:36;;;;;;;83.45;43.15;;;;;;;0.64;75.37;99521.03;10457775;28;20120;-68
2021/01/03 06:07:38;;;;;;;78.97;41.60;;;;;;;0.55;75.44;99525.38;10457038;28;20060;-68
2021/01/03 06:12:42;;;;;;;80.40;41.92;;;;;;;0.64;75.26;99521.03;10458806;28;20051;-69
2021/01/03 06:17:43;;;;;;;77.43;39.63;;;;;;;0.67;75.11;99518.47;10461820;28;20055;-69
2021/01/03 06:22:48;;;;;;;80.78;39.97;;;;;;;0.59;75.28;99522.78;10458373;28;20115;-68
2021/01/03 06:27:50;;;;;;;74.53;38.72;;;;;;;0.64;75.33;99517.59;10457862;28;20044;-68
2021/01/03 06:32:51;;;;;;;70.45;37.65;;;;;;;0.54;75.38;99521.91;10458884;28;20503;-68
2021/01/03 06:38:13;;;;;;;69.85;36.80;;;;;;;0.51;75.31;99521.91;10439180;28;20131;-68
2021/01/03 06:43:24;;;;;;;73.38;39.13;;;;;;;0.46;75.50;99516.72;10439432;28;20045;-68
2021/01/03 06:49:11;;;;;;;65.00;36.47;;;;;;;0.44;75.38;99522.75;10456684;28;20044;-68
2021/01/03 06:54:49;;;;;;;61.88;34.08;;;;;;;0.47;75.57;99520.19;10442905;28;20092;-68
2021/01/03 07:00:16;;;;;;;62.95;34.83;;;;;;;0.39;75.95;99519.31;10440996;28;20116;-68
2021/01/03 07:05:17;;;;;;;58.00;31.77;;;;;;;0.40;75.72;99521.03;10457523;28;20128;-68
2021/01/03 07:10:29;;;;;;;65.32;35.00;;;;;;;0.31;75.70;99519.31;10457182;28;20141;-68
2021/01/03 07:15:30;;;;;;;48.85;29.10;;;;;;;0.30;76.03;99507.22;10441186;28;20047;-68
2021/01/03 07:20:51;;;;;;;52.33;30.38;;;;;;;0.34;75.79;99519.31;10447584;28;20071;-68
2021/01/03 07:26:23;;;;;;;48.13;28.67;;;;;;;0.32;76.19;99517.59;10467062;28;20051;-68
2021/01/03 07:31:53;;;;;;;42.85;27.08;;;;;;;0.41;75.91;99508.13;10449481;28;20044;-68
2021/01/03 07:37:11;;;;;;;37.45;25.60;;;;;;;0.42;75.74;99512.41;10466269;28;20045;-68
2021/01/03 07:42:27;;;;;;;28.92;20.60;;;;;;;0.40;75.66;99521.03;10465130;28;20041;-67
2021/01/03 07:47:38;;;;;;;39.03;25.23;;;;;;;0.37;75.79;99521.03;10466442;28;20043;-64
2021/01/03 07:52:40;;;;;;;42.38;24.65;;;;;;;0.36;75.84;99520.19;10466556;28;20096;-64
2021/01/03 07:57:42;;;;;;;33.38;24.02;;;;;;;0.45;75.49;99524.50;10465225;28;20116;-64
2021/01/03 08:02:44;;;;;;;33.78;23.58;;;;;;;0.49;75.70;99514.16;10464459;28;20068;-64
2021/01/03 08:07:45;;;;;;;32.65;21.65;;;;;;;0.60;75.54;99519.31;10465405;28;20055;-64
2021/01/03 08:12:58;;;;;;;35.05;21.38;;;;;;;0.56;75.36;99516.72;10475984;22;20049;-67
2021/01/03 08:18:19;;;;;;;33.53;23.45;;;;;;;0.30;76.02;99527.91;10462756;28;20506;-67
2021/01/03 08:23:27;;;;;;;29.75;21.75;;;;;;;0.67;75.68;99525.38;10460751;28;20127;-67
2021/01/03 08:28:31;;;;;;;26.08;20.65;;;;;;;0.65;75.12;99521.91;10460827;28;20037;-66
2021/01/03 08:33:38;;;;;;;27.48;21.77;;;;;;;0.71;75.15;99521.94;10444056;28;20051;-67
2021/01/03 08:38:40;;;;;;;20.83;18.27;;;;;;;0.74;74.92;99525.34;10460564;28;20536;-67
2021/01/03 08:43:43;;;;;;;22.92;18.90;;;;;;;0.77;75.07;99532.25;10459883;28;20076;-66
2021/01/03 08:48:46;;;;;;;24.42;19.17;;;;;;;0.67;75.24;99526.22;10460293;28;20092;-65
2021/01/03 08:53:47;;;;;;;19.13;16.77;;;;;;;0.75;75.18;99526.22;10442522;28;20065;-65
2021/01/03 08:58:48;;;;;;;20.33;18.08;;;;;;;0.68;75.48;99533.13;10460187;28;20083;-65
2021/01/03 09:03:56;;;;;;;19.77;17.83;;;;;;;0.80;74.63;99533.97;10459127;28;20048;-64
2021/01/03 09:09:08;;;;;;;19.30;17.38;;;;;;;0.80;74.81;99536.56;10417140;28;20357;-65
2021/01/03 09:14:29;;;;;;;23.98;17.58;;;;;;;0.77;74.96;99534.00;10417018;28;20095;-65
2021/01/03 09:20:06;;;;;;;26.88;19.48;;;;;;;0.77;76.29;99539.16;10417043;28;20041;-65
2021/01/03 09:25:20;;;;;;;25.42;19.20;;;;;;;0.74;76.59;99551.22;10438539;28;20102;-65
2021/01/03 09:30:38;;;;;;;19.33;17.27;;;;;;;0.87;75.94;99553.81;10439288;28;20482;-67
2021/01/03 09:35:53;;;;;;;22.17;19.60;;;;;;;0.88;75.31;99548.63;10417012;28;20463;-64
2021/01/03 09:41:24;;;;;;;20.52;18.38;;;;;;;0.84;75.54;99540.88;10415537;28;20042;-66
2021/01/03 09:46:31;;;;;;;22.80;18.75;;;;;;;0.75;76.32;99542.63;10416756;28;20099;-66
2021/01/03 09:51:42;;;;;;;23.05;18.33;;;;;;;0.84;75.83;99544.34;10416185;28;20045;-64
2021/01/03 09:56:45;;;;;;;18.98;17.15;;;;;;;0.92;75.37;99545.19;10415758;28;20556;-66
2021/01/03 10:01:49;;;;;;;21.23;18.75;;;;;;;0.89;75.51;99542.59;10416080;28;20407;-65
2021/01/03 10:06:54;;;;;;;20.90;17.75;;;;;;;0.99;75.19;99540.88;10416475;28;20076;-65
2021/01/03 10:11:55;;;;;;;21.08;17.80;;;;;;;0.96;75.25;99543.44;10417722;28;20073;-65
2021/01/03 10:17:18;;;;;;;20.65;18.25;;;;;;;1.10;75.07;99540.84;10416279;28;20510;-67
2021/01/03 10:22:41;;;;;;;20.05;17.95;;;;;;;1.10;74.91;99541.69;10415559;28;20045;-64
2021/01/03 10:28:06;;;;;;;28.25;19.15;;;;;;;1.03;75.33;99533.97;10416085;28;20046;-66
2021/01/03 10:33:08;;;;;;;19.92;17.92;;;;;;;1.12;75.20;99533.97;10415411;28;20091;-66
2021/01/03 10:38:10;;;;;;;20.20;18.25;;;;;;;1.18;75.25;99531.34;10414973;28;20087;-64
2021/01/03 10:43:11;;;;;;;26.85;21.70;;;;;;;1.17;74.97;99534.81;10415698;28;20422;-65
2021/01/03 10:48:13;;;;;;;23.88;20.58;;;;;;;1.08;75.19;99532.22;10415045;28;20096;-66
2021/01/03 10:53:15;;;;;;;22.98;20.08;;;;;;;1.10;75.21;99539.13;10418079;28;20199;-66
2021/01/03 10:58:16;;;;;;;30.30;18.95;;;;;;;1.11;75.22;99534.81;10422733;28;20091;-66
2021/01/03 11:03:18;;;;;;;21.58;19.35;;;;;;;1.11;75.15;99533.09;10422757;28;20089;-66
2021/01/03 11:08:19;;;;;;;21.90;19.58;;;;;;;1.14;75.07;99533.06;10423042;28;20412;-66
2021/01/03 11:13:20;;;;;;;22.13;19.75;;;;;;;1.30;74.80;99526.16;10422561;28;20060;-67
2021/01/03 11:18:21;;;;;;;26.15;21.60;;;;;;;1.25;74.79;99522.72;10422810;28;20083;-65
2021/01/03 11:23:23;;;;;;;27.70;21.80;;;;;;;1.30;74.90;99525.28;10423388;28;20064;-65
2021/01/03 11:28:25;;;;;;;23.92;21.33;;;;;;;1.25;74.92;99527.88;10422057;28;20095;-66
2021/01/03 11:33:26;;;;;;;28.80;23.73;;;;;;;1.17;75.19;99519.28;10422002;28;20053;-65
2021/01/03 11:38:27;;;;;;;24.77;22.33;;;;;;;1.11;75.42;99532.25;10420964;28;20041;-65
2021/01/03 11:43:28;;;;;;;26.58;22.90;;;;;;;1.09;75.95;99534.81;10420520;28;20037;-65
2021/01/03 11:48:30;;;;;;;32.05;23.08;;;;;;;1.37;75.39;99521.78;10420839;28;20380;-67
2021/01/03 11:53:31;;;;;;;25.67;22.95;;;;;;;1.24;75.23;99519.25;10422149;28;20094;-66
2021/01/03 11:58:33;;;;;;;28.85;23.23;;;;;;;1.32;75.77;99521.81;10422146;28;20041;-67
2021/01/03 12:03:34;;;;;;;34.53;23.80;;;;;;;1.29;76.01;99523.56;10403567;28;20053;-67
2021/01/03 12:08:36;;;;;;;38.92;25.17;;;;;;;1.31;75.51;99522.69;10403445;28;20132;-68
2021/01/03 12:13:38;;;;;;;34.35;26.00;;;;;;;1.28;75.79;99522.69;10421162;28;20038;-67
2021/01/03 12:18:40;;;;;;;46.35;26.33;;;;;;;1.36;75.68;99522.66;10420491;28;20099;-68
2021/01/03 12:23:41;;;;;;;37.10;26.50;;;;;;;1.43;75.36;99514.03;10420757;28;20095;-66
2021/01/03 12:28:42;;;;;;;38.13;28.48;;;;;;;1.50;75.49;99515.72;10386711;28;20124;-67
2021/01/03 12:33:43;;;;;;;34.72;28.15;;;;;;;1.45;75.47;99518.31;10420991;28;20045;-69
2021/01/03 12:38:45;;;;;;;41.63;29.48;;;;;;;1.38;75.80;99527.00;10402441;28;20103;-68
2021/01/03 12:43:48;;;;;;;37.58;29.95;;;;;;;1.44;75.61;99529.56;10420106;28;20045;-67
2021/01/03 12:48:49;;;;;;;40.20;30.05;;;;;;;1.45;75.93;99530.41;10420457;28;20045;-67
2021/01/03 12:53:51;;;;;;;43.97;30.52;;;;;;;1.48;75.88;99538.19;10421604;28;20077;-67
2021/01/03 12:58:53;;;;;;;46.90;32.40;;;;;;;1.49;76.20;99534.72;10418955;28;20042;-67
2021/01/03 13:03:56;;;;;;;55.83;35.42;;;;;;;1.52;76.57;99535.56;10418886;28;20099;-66
2021/01/03 13:08:57;;;;;;;51.50;32.50;;;;;;;1.36;76.43;99536.47;10419284;28;20041;-68
2021/01/03 13:13:58;;;;;;;49.10;33.08;;;;;;;1.25;76.94;99548.59;10417634;28;20046;-66
2021/01/03 13:19:02;;;;;;;54.00;34.03;;;;;;;1.45;76.82;99549.41;10418558;28;20041;-67
2021/01/03 13:24:05;;;;;;;42.75;32.55;;;;;;;1.39;77.01;99558.94;10418285;28;20080;-67
2021/01/03 13:29:06;;;;;;;48.60;33.42;;;;;;;1.37;76.92;99550.28;10417804;28;20049;-66
2021/01/03 13:34:08;;;;;;;55.78;36.15;;;;;;;1.57;76.66;99569.22;10418812;28;20095;-67
2021/01/03 13:39:11;;;;;;;56.45;35.25;;;;;;;1.43;76.87;99561.50;10418177;28;20065;-68
2021/01/03 13:44:12;;;;;;;58.58;35.88;;;;;;;1.33;76.96;99567.56;10418419;28;20412;-67
2021/01/03 13:49:14;;;;;;;66.40;40.03;;;;;;;1.36;77.22;99561.50;10417580;28;20042;-66
2021/01/03 13:54:17;;;;;;;55.83;37.38;;;;;;;1.40;76.87;99560.66;10416593;28;20050;-67
2021/01/03 13:59:20;;;;;;;56.20;36.72;;;;;;;1.38;77.05;99567.56;10417241;28;20045;-66
2021/01/03 14:04:22;;;;;;;60.03;36.03;;;;;;;1.33;77.05;99570.16;10399094;28;20115;-66
2021/01/03 14:09:25;;;;;;;57.40;35.03;;;;;;;1.32;76.91;99572.75;10412965;28;20033;-66
2021/01/03 14:14:27;;;;;;;69.85;39.22;;;;;;;1.51;76.80;99570.13;10411016;28;20077;-66
2021/01/03 14:19:28;;;;;;;60.15;37.30;;;;;;;1.34;77.20;99576.22;10410935;28;20037;-65
2021/01/03 14:24:29;;;;;;;69.10;38.58;;;;;;;1.42;77.11;99577.06;10434501;22;20041;-64
2021/01/03 14:29:30;;;;;;;69.47;40.47;;;;;;;1.41;77.18;99581.34;10464316;28;20037;-63
2021/01/03 14:34:35;;;;;;;78.03;40.33;;;;;;;1.35;77.26;99581.38;10463202;28;20052;-67
2021/01/03 14:39:38;;;;;;;69.68;39.05;;;;;;;1.30;77.53;99582.25;10426613;28;20106;-67
2021/01/03 14:44:40;;;;;;;71.93;41.65;;;;;;;1.56;77.47;99577.88;10441874;28;20152;-67
2021/01/03 14:49:54;;;;;;;73.55;42.78;;;;;;;1.43;77.30;99582.22;10441346;28;20095;-67
2021/01/03 14:55:25;;;;;;;81.78;44.65;;;;;;;1.26;77.74;99583.97;10458897;28;20049;-67
2021/01/03 15:00:44;;;;;;;77.32;42.15;;;;;;;1.25;77.88;99590.88;10458591;28;20554;-67
2021/01/03 15:06:09;;;;;;;76.43;43.17;;;;;;;1.23;77.97;99594.31;10458226;28;20045;-68
2021/01/03 15:11:11;;;;;;;81.82;44.45;;;;;;;1.20;78.06;99592.63;10457041;28;20044;-66
2021/01/03 15:16:21;;;;;;;74.70;41.15;;;;;;;1.21;77.96;99596.94;10456848;28;20065;-66
2021/01/03 15:21:23;;;;;;;76.43;41.53;;;;;;;1.16;77.76;99598.66;10456956;28;20033;-67
2021/01/03 15:26:36;;;;;;;69.30;41.35;;;;;;;1.20;77.67;99609.88;10458519;28;20045;-66
2021/01/03 15:31:48;;;;;;;79.85;41.80;;;;;;;1.38;77.48;99609.00;10458043;28;20076;-66
2021/01/03 15:36:50;;;;;;;77.55;44.65;;;;;;;1.19;77.54;99618.50;10458617;28;20048;-66
2021/01/03 15:42:07;;;;;;;78.03;41.20;;;;;;;1.25;77.83;99624.53;10465546;28;20414;-68
2021/01/03 15:47:27;;;;;;;83.50;46.30;;;;;;;1.30;77.85;99623.69;10448035;28;20052;-68
2021/01/03 15:52:34;;;;;;;82.13;46.08;;;;;;;1.25;78.11;99626.28;10466253;28;20465;-67
2021/01/03 15:57:35;;;;;;;91.78;49.63;;;;;;;1.18;78.06;99624.53;10466098;28;20044;-68
2021/01/03 16:02:40;;;;;;;89.10;46.40;;;;;;;1.25;77.79;99623.69;10465826;28;20044;-68
2021/01/03 16:07:42;;;;;;;80.05;46.50;;;;;;;1.43;77.83;99623.66;10463569;28;20045;-67
2021/01/03 16:12:44;;;;;;;76.47;44.47;;;;;;;1.35;77.77;99620.22;10462938;28;20437;-66
2021/01/03 16:17:48;;;;;;;77.55;42.75;;;;;;;1.21;77.85;99629.72;10463326;28;20095;-68
2021/01/03 16:22:58;;;;;;;81.68;44.50;;;;;;;1.38;77.96;99633.16;10462518;28;20041;-66
2021/01/03 16:28:07;;;;;;;77.45;43.95;;;;;;;1.28;77.83;99634.03;10464027;28;20064;-67
2021/01/03 16:33:28;;;;;;;85.35;45.70;;;;;;;1.47;77.46;99646.09;10446480;28;20532;-67
2021/01/03 16:38:40;;;;;;;84.78;45.05;;;;;;;1.48;77.35;99645.22;10446778;28;20388;-67
2021/01/03 16:44:15;;;;;;;83.50;45.65;;;;;;;1.38;77.36;99653.88;10464678;28;20110;-67
2021/01/03 16:49:26;;;;;;;87.78;47.70;;;;;;;1.24;77.81;99647.84;10463027;28;20040;-67
2021/01/03 16:54:56;;;;;;;87.45;46.00;;;;;;;1.33;77.74;99644.38;10446944;28;20047;-67
2021/01/03 17:00:27;;;;;;;89.72;45.97;;;;;;;1.34;77.63;99657.34;10463757;28;20033;-67
2021/01/03 17:05:29;;;;;;;89.43;45.13;;;;;;;1.49;77.58;99659.91;10463612;28;20384;-68
2021/01/03 17:10:48;;;;;;;90.63;46.55;;;;;;;1.43;77.90;99659.06;10462235;28;20049;-68
2021/01/03 17:16:05;;;;;;;124.05;64.82;;;;;;;1.37;78.50;99659.91;10462301;28;20380;-68
2021/01/03 17:21:46;;;;;;;109.85;51.53;;;;;;;1.63;77.97;99667.66;10460469;28;20502;-66
2021/01/03 17:27:40;;;;;;;100.78;48.13;;;;;;;1.42;77.85;99660.78;10460066;28;20045;-68
2021/01/03 17:33:03;;;;;;;104.90;50.70;;;;;;;1.42;78.28;99658.19;10238547;29;20150;-68
2021/01/03 17:38:16;;;;;;;101.82;51.65;;;;;;;1.37;78.49;99662.50;10253732;28;20118;-66
2021/01/03 17:43:20;;;;;;;101.47;50.08;;;;;;;1.35;78.18;99665.97;10251644;29;20122;-67
2021/01/03 17:48:33;;;;;;;96.80;47.05;;;;;;;1.29;78.27;99671.16;10252816;28;20121;-68
2021/01/03 17:53:37;;;;;;;103.20;55.17;;;;;;;1.36;78.40;99676.31;10252481;29;20054;-68
2021/01/03 17:58:38;;;;;;;98.93;50.25;;;;;;;1.30;77.76;99673.75;10252954;28;20501;-67
2021/01/03 18:03:41;;;;;;;98.88;52.35;;;;;;;1.24;77.70;99678.94;10251685;28;20059;-67
2021/01/03 18:08:42;;;;;;;93.20;48.67;;;;;;;1.27;77.74;99689.25;10378684;28;20151;-67
2021/01/03 18:13:43;;;;;;;96.10;49.63;;;;;;;1.36;77.58;99689.25;10441822;28;20132;-67
2021/01/03 18:18:44;;;;;;;91.13;46.97;;;;;;;1.35;77.44;99697.03;10458432;28;20045;-66
2021/01/03 18:23:46;;;;;;;85.32;43.88;;;;;;;1.24;77.35;99697.91;10458129;28;20048;-67
2021/01/03 18:28:47;;;;;;;90.40;45.85;;;;;;;1.40;77.09;99696.16;10458886;28;20053;-67
2021/01/03 18:33:48;;;;;;;86.97;44.25;;;;;;;1.35;77.02;99710.00;10439613;28;20187;-67
2021/01/03 18:38:49;;;;;;;77.82;41.38;;;;;;;1.32;77.30;99709.97;10460516;28;20045;-67
2021/01/03 18:43:51;;;;;;;82.30;42.25;;;;;;;1.37;77.12;99719.47;10457889;28;20099;-67
2021/01/03 18:48:52;;;;;;;76.40;39.28;;;;;;;1.35;76.89;99722.94;10458128;28;20053;-68
2021/01/03 18:53:54;;;;;;;69.63;36.88;;;;;;;1.25;77.20;99722.94;10459835;28;20052;-68
2021/01/03 18:58:55;;;;;;;68.35;36.65;;;;;;;1.32;77.03;99728.97;10458975;28;20037;-68
2021/01/03 19:03:57;;;;;;;62.33;34.83;;;;;;;1.36;76.64;99730.69;10460524;28;20521;-68
2021/01/03 19:09:00;;;;;;;62.85;35.70;;;;;;;1.32;77.14;99730.69;10444398;28;20139;-68
2021/01/03 19:14:04;;;;;;;61.50;34.55;;;;;;;1.34;76.89;99729.84;10447602;28;20073;-67
2021/01/03 19:19:08;;;;;;;73.40;36.15;;;;;;;1.14;76.96;99729.81;10468697;28;20091;-67
2021/01/03 19:24:10;;;;;;;81.07;42.45;;;;;;;1.04;77.52;99733.25;10449889;28;20053;-67
2021/01/03 19:29:11;;;;;;;83.30;43.25;;;;;;;0.98;77.60;99738.44;10470819;28;20495;-68
2021/01/03 19:34:18;;;;;;;77.85;40.92;;;;;;;1.11;77.71;99745.38;10479154;28;20052;-68
2021/01/03 19:39:25;;;;;;;69.22;36.63;;;;;;;1.04;77.69;99742.75;10473907;28;20544;-67
2021/01/03 19:44:30;;;;;;;70.85;38.67;;;;;;;1.07;77.58;99758.28;10457725;28;20041;-67
2021/01/03 19:49:32;;;;;;;66.32;36.83;;;;;;;0.99;77.47;99761.72;10457321;28;20075;-68
2021/01/03 19:54:33;;;;;;;66.65;37.53;;;;;;;1.00;77.40;99762.56;10474826;28;20064;-67
2021/01/03 19:59:35;;;;;;;71.13;38.30;;;;;;;1.13;77.57;99769.50;10476429;28;20048;-67
2021/01/03 20:04:36;;;;;;;68.53;36.17;;;;;;;1.00;77.53;99763.44;10473754;28;20437;-66
2021/01/03 20:09:39;;;;;;;53.85;33.85;;;;;;;1.05;77.28;99762.59;10476819;28;20041;-67
2021/01/03 20:14:40;;;;;;;66.57;36.00;;;;;;;0.91;77.86;99763.41;10456244;28;20441;-67
2021/01/03 20:19:41;;;;;;;53.97;32.50;;;;;;;0.99;77.71;99779.84;10453028;28;20045;-69
2021/01/03 20:24:43;;;;;;;53.42;31.52;;;;;;;0.96;77.70;99777.22;10488428;22;20049;-65
2021/01/03 20:29:44;;;;;;;54.13;33.03;;;;;;;1.13;77.22;99784.19;10462562;28;20041;-66
2021/01/03 20:34:45;;;;;;;52.03;30.98;;;;;;;1.03;77.32;99795.38;10444077;28;20091;-65
2021/01/03 20:39:46;;;;;;;53.53;32.75;;;;;;;0.88;77.68;99789.28;10461159;28;20091;-64
2021/01/03 20:44:48;;;;;;;52.75;30.77;;;;;;;1.06;77.42;99782.44;10461158;28;20072;-64
2021/01/03 20:49:50;;;;;;;56.78;33.38;;;;;;;0.90;77.75;99789.31;10460869;28;20037;-67
2021/01/03 20:54:51;;;;;;;51.83;32.28;;;;;;;1.08;77.28;99794.53;10461188;28;20063;-65
2021/01/03 20:59:52;;;;;;;58.08;31.00;;;;;;;1.09;77.12;99800.56;10460697;28;20076;-65
2021/01/03 21:04:53;;;;;;;62.03;31.85;;;;;;;1.00;77.41;99802.25;10460100;28;20051;-65
2021/01/03 21:09:55;;;;;;;53.72;31.23;;;;;;;0.93;78.04;99800.53;10441808;28;20041;-66
2021/01/03 21:14:56;;;;;;;61.72;32.30;;;;;;;0.87;77.89;99809.97;10441418;28;20103;-64
2021/01/03 21:19:57;;;;;;;55.97;32.38;;;;;;;0.94;77.48;99811.75;10459294;28;20106;-65
2021/01/03 21:25:01;;;;;;;60.85;32.05;;;;;;;0.87;77.82;99816.03;10460195;28;20465;-64
2021/01/03 21:30:13;;;;;;;61.13;30.65;;;;;;;0.92;77.89;99813.44;10458729;28;20113;-64
2021/01/03 21:35:16;;;;;;;52.53;30.10;;;;;;;0.97;77.48;99817.81;10457863;28;20041;-64
2021/01/03 21:40:35;;;;;;;54.53;31.65;;;;;;;0.95;77.50;99816.91;10458271;28;20125;-63
2021/01/03 21:45:40;;;;;;;61.85;33.35;;;;;;;0.86;77.46;99818.63;10458376;28;20048;-63
2021/01/03 21:51:06;;;;;;;69.80;34.33;;;;;;;0.80;77.93;99816.88;10458042;28;20406;-65
2021/01/03 21:56:45;;;;;;;53.70;30.63;;;;;;;0.87;77.74;99815.16;10457906;28;20045;-66
2021/01/03 22:02:22;;;;;;;57.30;31.60;;;;;;;0.94;77.65;99825.53;10457435;28;20059;-65
2021/01/03 22:08:01;;;;;;;58.65;30.23;;;;;;;1.07;77.35;99815.25;10453815;28;20060;-64
2021/01/03 22:13:15;;;;;;;66.40;32.88;;;;;;;0.92;77.44;99818.63;10441283;28;20055;-64
2021/01/03 22:18:29;;;;;;;58.50;31.80;;;;;;;0.87;77.69;99822.91;10457888;28;20063;-63
2021/01/03 22:23:49;;;;;;;59.90;30.40;;;;;;;0.96;77.46;99818.63;10458174;28;20455;-64
2021/01/03 22:29:08;;;;;;;60.67;31.48;;;;;;;1.11;77.16;99837.69;10456954;28;20045;-64
2021/01/03 22:34:27;;;;;;;68.22;32.60;;;;;;;1.08;77.15;99840.25;10457367;28;20045;-62
2021/01/03 22:39:31;;;;;;;71.28;32.33;;;;;;;1.06;77.20;99840.22;10457709;28;20041;-66
2021/01/03 22:45:01;;;;;;;71.38;32.80;;;;;;;1.07;77.04;99844.56;10457395;28;20075;-64
2021/01/03 22:50:14;;;;;;;65.78;33.40;;;;;;;0.99;77.30;99841.09;10467702;28;20128;-65
2021/01/03 22:55:41;;;;;;;67.28;31.80;;;;;;;0.90;77.96;99839.31;10470153;28;20077;-65
2021/01/03 23:00:47;;;;;;;;;;;;;;;0.91;77.62;99840.19;10472359;28;20470;-64
2021/01/03 23:06:08;;;;;;;71.90;33.90;;;;;;;0.77;78.28;99837.53;10471711;28;19999;-63
2021/01/03 23:11:13;;;;;;;83.38;34.25;;;;;;;0.79;77.97;99834.97;10470759;28;20558;-63
2021/01/03 23:16:28;;;;;;;75.72;34.28;;;;;;;1.02;77.62;99828.16;10472558;28;20045;-64
2021/01/03 23:21:35;;;;;;;68.95;32.35;;;;;;;0.88;77.87;99828.09;10471651;28;20041;-63
2021/01/03 23:26:40;;;;;;;74.03;33.55;;;;;;;0.98;77.24;99827.28;10470881;28;20049;-65
2021/01/03 23:31:45;;;;;;;82.53;35.13;;;;;;;0.85;77.66;99841.03;10470465;28;20091;-64